Connexion S'enregistrer

Connexion à votre compte

Identifiant
Mot de passe
Maintenir la connexion active sur ce site

Créer un compte

Pour valider ce formulaire, vous devez remplir tous les champs.
Nom
Identifiant
Mot de passe
Répétez le mot de passe
Adresse e-mail
Répétez l'adresse e-mail

METAR/TAF de Chambéry

[source: ADDS]
METAR
LFLB 161630Z AUTO 09002KT 4400 RA BR BKN007 BKN017 OVC024 05/05 Q1014 TEMPO 2000 -RADZ BR =
TAF LFLB 161100Z 1612/1712 VRB05KT 8000 BKN020 PROB40 TEMPO 1612/1712 2000 -RADZ BR BKN007 BKN012 PROB30 TEMPO 1700/1709 1000 -RASN OVC004
TAF
TAF LFLB 161100Z 1612/1712 VRB05KT 8000 BKN020 PROB40 TEMPO 1612/1712 2000 -RADZ BR BKN007 BKN012 PROB30 TEMPO 1700/1709 1000 -RASN OVC004 =
SR / SS: 07:10 / 15:53 UTC (Lever/Coucher du soleil le 2018-12-16)

 

Webcam de l'Aéroclub - Parking Lima et SW (réactualisation : 5min)

Cliquer ici pour une animation sur les 3 dernières heures / Cliquer sur l'image pour l'agrandir dans une nouvelle fenêtre

 

Webcam de l'Aéroclub - Manche à air et WA (réactualisation : 5min)

Cliquer ici pour une animation sur les 3 dernières heures / Cliquer sur l'image pour l'agrandir dans une nouvelle fenêtre

 

JSN Boot template designed by JoomlaShine.com